createdAt,value
2023-03-11T00:02:41.299Z,96215.81
2023-03-11T00:07:44.551Z,96218.83
2023-03-11T00:12:47.738Z,96216.49
2023-03-11T00:17:51.752Z,96213.63
2023-03-11T00:22:55.466Z,96215.10
2023-03-11T00:27:59.001Z,96210.50
2023-03-11T00:33:02.344Z,96211.45
2023-03-11T00:38:07.528Z,96205.64
2023-03-11T00:43:10.838Z,96196.16
2023-03-11T00:48:15.064Z,96202.91
2023-03-11T00:53:18.357Z,96203.23
2023-03-11T00:58:27.472Z,96197.77
2023-03-11T01:03:32.224Z,96193.46
2023-03-11T01:08:36.019Z,96193.61
2023-03-11T01:13:40.556Z,96185.32
2023-03-11T01:18:43.840Z,96174.23
2023-03-11T01:23:47.107Z,96173.17
2023-03-11T01:28:50.337Z,96169.92
2023-03-11T01:33:53.547Z,96166.38
2023-03-11T01:38:56.758Z,96168.21
2023-03-11T01:44:00.132Z,96168.44
2023-03-11T01:49:12.597Z,96161.20
2023-03-11T01:54:22.435Z,96165.47
2023-03-11T01:59:27.748Z,96164.55
2023-03-11T02:04:35.081Z,96169.38
2023-03-11T02:09:38.915Z,96163.18
2023-03-11T02:14:46.435Z,96178.02
2023-03-11T02:20:09.103Z,96168.94
2023-03-11T02:25:19.277Z,96173.73
2023-03-11T02:30:24.035Z,96172.56
2023-03-11T02:35:30.301Z,96172.41
2023-03-11T02:40:53.990Z,96173.96
2023-03-11T02:45:58.325Z,96184.55
2023-03-11T02:51:02.611Z,96187.52
2023-03-11T02:56:06.708Z,96196.09
2023-03-11T03:01:10.417Z,96187.70
2023-03-11T03:06:16.473Z,96191.02
2023-03-11T03:11:20.224Z,96186.63
2023-03-11T03:16:25.158Z,96186.53
2023-03-11T03:21:28.735Z,96188.63
2023-03-11T03:26:32.408Z,96199.13
2023-03-11T03:31:36.179Z,96196.48
2023-03-11T03:36:40.023Z,96203.25
2023-03-11T03:41:43.356Z,96201.16
2023-03-11T03:46:47.440Z,96198.95
2023-03-11T03:51:50.944Z,96199.45
2023-03-11T03:57:07.283Z,96204.16
2023-03-11T04:02:14.611Z,96196.30
2023-03-11T04:07:19.018Z,96187.98
2023-03-11T04:12:22.518Z,96181.77
2023-03-11T04:17:25.853Z,96174.50
2023-03-11T04:22:29.766Z,96167.11
2023-03-11T04:27:34.144Z,96158.61
2023-03-11T04:32:38.436Z,96156.52
2023-03-11T04:37:42.455Z,96156.74
2023-03-11T04:42:45.987Z,96155.54
2023-03-11T04:47:51.151Z,96166.92
2023-03-11T04:52:56.786Z,96171.23
2023-03-11T04:58:00.451Z,96182.73
2023-03-11T05:03:04.219Z,96185.27
2023-03-11T05:08:07.962Z,96190.76
2023-03-11T05:13:11.667Z,96181.19
2023-03-11T05:18:16.302Z,96179.94
2023-03-11T05:23:21.779Z,96171.64
2023-03-11T05:28:25.352Z,96176.32
2023-03-11T05:33:34.969Z,96184.27
2023-03-11T05:38:39.637Z,96190.35
2023-03-11T05:43:43.468Z,96198.03
2023-03-11T05:48:48.885Z,96197.95
2023-03-11T05:53:52.971Z,96204.82
2023-03-11T05:59:02.771Z,96213.73
2023-03-11T06:04:08.327Z,96222.72
2023-03-11T06:09:13.565Z,96230.00
2023-03-11T06:14:17.621Z,96240.11
2023-03-11T06:19:22.596Z,96250.64
2023-03-11T06:24:27.209Z,96265.79
2023-03-11T06:29:31.573Z,96288.23
2023-03-11T06:34:35.305Z,96301.98
2023-03-11T06:39:39.198Z,96306.98
2023-03-11T06:44:42.841Z,96310.85
2023-03-11T06:49:46.940Z,96307.93
2023-03-11T06:54:50.359Z,96309.35
2023-03-11T06:59:54.212Z,96319.30
2023-03-11T07:04:59.125Z,96325.70
2023-03-11T07:10:02.695Z,96344.45
2023-03-11T07:15:07.966Z,96356.78
2023-03-11T07:20:12.346Z,96363.14
2023-03-11T07:25:16.340Z,96375.32
2023-03-11T07:30:19.735Z,96379.77
2023-03-11T07:35:23.492Z,96386.02
2023-03-11T07:40:26.772Z,96390.78
2023-03-11T07:45:30.050Z,96399.80
2023-03-11T07:50:33.387Z,96412.05
2023-03-11T07:55:37.881Z,96420.36
2023-03-11T08:00:41.153Z,96423.02
2023-03-11T08:05:45.101Z,96429.77
2023-03-11T08:10:48.420Z,96433.39
2023-03-11T08:15:51.662Z,96440.46
2023-03-11T08:20:55.791Z,96457.73
2023-03-11T08:25:59.755Z,96455.00
2023-03-11T08:31:04.081Z,96460.31
2023-03-11T08:36:08.471Z,96464.40
2023-03-11T08:41:12.153Z,96471.39
2023-03-11T08:46:25.640Z,96478.21
2023-03-11T08:51:30.496Z,96481.96
2023-03-11T08:56:33.846Z,96487.86
2023-03-11T09:01:37.149Z,96486.42
2023-03-11T09:06:44.761Z,96503.65
2023-03-11T09:11:48.850Z,96494.06
2023-03-11T09:16:52.559Z,96504.64
2023-03-11T09:21:55.875Z,96526.50
2023-03-11T09:26:59.141Z,96526.85
2023-03-11T09:32:02.356Z,96534.55
2023-03-11T09:37:05.639Z,96546.74
2023-03-11T09:42:27.475Z,96554.06
2023-03-11T09:48:06.255Z,96549.73
2023-03-11T09:53:27.944Z,96559.00
2023-03-11T09:58:47.386Z,96566.35
2023-03-11T10:03:54.808Z,96569.36
2023-03-11T10:09:48.336Z,96584.50
2023-03-11T10:14:57.577Z,96591.70
2023-03-11T10:20:13.162Z,96602.55
2023-03-11T10:25:20.159Z,96609.89
2023-03-11T10:30:30.569Z,96607.77
2023-03-11T10:35:46.323Z,96616.35
2023-03-11T10:40:53.117Z,96635.80
2023-03-11T10:45:56.418Z,96648.19
2023-03-11T10:51:04.666Z,96651.16
2023-03-11T10:56:25.701Z,96649.10
2023-03-11T11:01:30.007Z,96658.64
2023-03-11T11:06:35.446Z,96668.92
2023-03-11T11:11:39.842Z,96676.80
2023-03-11T11:16:43.184Z,96684.73
2023-03-11T11:21:52.475Z,96699.55
2023-03-11T11:27:25.220Z,96707.77
2023-03-11T11:32:29.544Z,96719.23
2023-03-11T11:37:36.327Z,96722.95
2023-03-11T11:43:01.404Z,96737.33
2023-03-11T11:48:20.089Z,96746.52
2023-03-11T11:53:55.780Z,96758.05
2023-03-11T11:58:59.035Z,96774.18
2023-03-11T12:04:40.804Z,96777.82
2023-03-11T12:10:22.837Z,96790.84
2023-03-11T12:15:31.821Z,96799.23
2023-03-11T12:20:50.075Z,96805.36
2023-03-11T12:26:14.555Z,96818.83
2023-03-11T12:31:18.000Z,96841.77
2023-03-11T12:36:32.767Z,96852.98
2023-03-11T12:41:42.331Z,96870.39
2023-03-11T12:46:54.865Z,96905.47
2023-03-11T12:52:16.111Z,96932.73
2023-03-11T12:57:19.511Z,96950.70
2023-03-11T13:03:03.241Z,96968.14
2023-03-11T13:08:15.375Z,96993.52
2023-03-11T13:13:33.708Z,97008.20
2023-03-11T13:18:37.281Z,97015.27
2023-03-11T13:23:40.696Z,97031.33
2023-03-11T13:28:57.065Z,97043.41
2023-03-11T13:34:30.197Z,97053.95
2023-03-11T13:39:55.086Z,97075.69
2023-03-11T13:44:58.655Z,97089.84
2023-03-11T13:50:03.890Z,97111.23
2023-03-11T13:55:20.650Z,97122.64
2023-03-11T14:00:26.002Z,97132.81
2023-03-11T14:05:34.139Z,97140.23
2023-03-11T14:10:37.406Z,97151.09
2023-03-11T14:16:13.421Z,97170.07
2023-03-11T14:21:19.017Z,97184.06
2023-03-11T14:26:29.365Z,97193.71
2023-03-11T14:31:40.528Z,97195.77
2023-03-11T14:36:44.602Z,97215.43
2023-03-11T14:41:48.517Z,97233.77
2023-03-11T14:46:52.747Z,97242.41
2023-03-11T14:52:01.557Z,97259.83
2023-03-11T14:57:07.873Z,97273.48
2023-03-11T15:02:43.508Z,97289.55
2023-03-11T15:07:49.198Z,97304.70
2023-03-11T15:13:05.108Z,97309.86
2023-03-11T15:18:27.470Z,97329.84
2023-03-11T15:23:30.933Z,97342.00
2023-03-11T15:28:36.996Z,97353.46
2023-03-11T15:33:40.518Z,97365.94
2023-03-11T15:38:43.775Z,97378.20
2023-03-11T15:43:50.398Z,97394.89
2023-03-11T15:48:53.937Z,97408.93
2023-03-11T15:53:57.598Z,97410.44
2023-03-11T15:59:00.910Z,97417.04
2023-03-11T16:04:04.435Z,97420.43
2023-03-11T16:09:08.017Z,97424.52
2023-03-11T16:14:20.261Z,97436.28
2023-03-11T16:19:23.666Z,97445.34
2023-03-11T16:24:27.776Z,97449.55
2023-03-11T16:29:31.196Z,97453.86
2023-03-11T16:34:34.727Z,97461.83
2023-03-11T16:39:38.970Z,97477.20
2023-03-11T16:44:42.248Z,97487.08
2023-03-11T16:49:45.523Z,97495.31
2023-03-11T16:54:51.339Z,97505.87
2023-03-11T16:59:55.633Z,97515.30
2023-03-11T17:04:59.494Z,97526.25
2023-03-11T17:10:02.871Z,97533.67
2023-03-11T17:15:06.981Z,97544.30
2023-03-11T17:20:11.326Z,97554.45
2023-03-11T17:25:14.715Z,97569.95
2023-03-11T17:30:35.545Z,97583.92
2023-03-11T17:35:41.166Z,97596.35
2023-03-11T17:40:46.360Z,97605.42
2023-03-11T17:45:49.769Z,97610.41
2023-03-11T17:50:53.044Z,97621.45
2023-03-11T17:55:56.249Z,97631.07
2023-03-11T18:00:59.795Z,97648.98
2023-03-11T18:06:05.440Z,97659.14
2023-03-11T18:11:11.537Z,97677.64
2023-03-11T18:16:20.715Z,97685.39
2023-03-11T18:21:29.776Z,97701.38
2023-03-11T18:26:33.025Z,97717.41
2023-03-11T18:31:36.337Z,97734.63
2023-03-11T18:36:41.433Z,97741.69
2023-03-11T18:41:44.978Z,97757.72
2023-03-11T18:46:48.139Z,97770.86
2023-03-11T18:51:52.957Z,97778.06
2023-03-11T18:56:56.171Z,97779.75
2023-03-11T19:01:59.370Z,97793.14
2023-03-11T19:07:02.572Z,97798.03
2023-03-11T19:12:05.987Z,97802.81
2023-03-11T19:17:09.314Z,97810.51
2023-03-11T19:22:12.702Z,97816.87
2023-03-11T19:27:16.010Z,97831.70
2023-03-11T19:32:19.382Z,97838.39
2023-03-11T19:37:25.504Z,97848.44
2023-03-11T19:42:28.928Z,97861.59
2023-03-11T19:47:32.469Z,97875.58
2023-03-11T19:52:36.370Z,97885.53
2023-03-11T19:57:40.300Z,97894.81
2023-03-11T20:02:44.252Z,97899.06
2023-03-11T20:07:48.448Z,97902.45
2023-03-11T20:13:02.145Z,97913.92
2023-03-11T20:18:07.645Z,97921.73
2023-03-11T20:23:12.637Z,97928.34
2023-03-11T20:28:16.440Z,97932.25
2023-03-11T20:33:20.178Z,97933.76
2023-03-11T20:38:23.770Z,97940.27
2023-03-11T20:43:27.149Z,97949.54
2023-03-11T20:48:30.870Z,97955.25
2023-03-11T20:53:35.059Z,97959.10
2023-03-11T20:58:38.842Z,97961.02
2023-03-11T21:03:43.832Z,97966.40
2023-03-11T21:08:49.042Z,97971.30
2023-03-11T21:13:53.095Z,97973.42
2023-03-11T21:18:56.852Z,97974.11
2023-03-11T21:24:00.725Z,97980.59
2023-03-11T21:29:04.614Z,97980.20
2023-03-11T21:34:10.910Z,97977.48
2023-03-11T21:39:15.407Z,97978.59
2023-03-11T21:44:19.444Z,97985.93
2023-03-11T21:49:23.465Z,97988.51
2023-03-11T21:54:27.452Z,97993.09
2023-03-11T21:59:31.353Z,98000.20
2023-03-11T22:04:35.174Z,98003.28
2023-03-11T22:09:38.601Z,98013.23
2023-03-11T22:14:42.111Z,98024.73
2023-03-11T22:19:45.617Z,98028.84
2023-03-11T22:24:48.873Z,98027.14
2023-03-11T22:29:52.341Z,98028.27
2023-03-11T22:34:55.778Z,98034.37
2023-03-11T22:39:59.049Z,98036.52
2023-03-11T22:45:03.796Z,98044.67
2023-03-11T22:50:08.387Z,98039.84
2023-03-11T22:55:12.180Z,98042.65
2023-03-11T23:00:19.072Z,98042.54
2023-03-11T23:05:23.474Z,98045.89
2023-03-11T23:10:27.193Z,98044.30
2023-03-11T23:15:30.610Z,98046.59
2023-03-11T23:20:39.339Z,98050.13
2023-03-11T23:25:43.254Z,98051.19
2023-03-11T23:30:46.702Z,98050.80
2023-03-11T23:35:49.916Z,98053.48
2023-03-11T23:40:54.557Z,98064.17
2023-03-11T23:45:58.578Z,98064.69
2023-03-11T23:51:02.281Z,98066.48
2023-03-11T23:56:11.159Z,98067.94
